Temperatur und Luftfeuchte

Temperatur und Luftfeuchte

Die letzten 100 Messwerte

Nummer Datum und Zeit Sensor ID Temperatur in Celsius gef├╝hlte Temperatur Luftfeuchte in %
45174 2021-06-24 05:44:47 Terrasse 18.20 18.68 99.90
45173 2021-06-24 05:16:30 Terrasse 18.20 18.68 99.90
45172 2021-06-24 04:48:13 Terrasse 18.40 18.90 99.90
45171 2021-06-24 04:19:54 Terrasse 18.40 18.90 99.90
45170 2021-06-24 03:51:36 Terrasse 18.50 19.01 99.90
45169 2021-06-24 03:23:17 Terrasse 18.60 19.12 99.90
45168 2021-06-24 02:54:59 Terrasse 18.70 19.23 99.90
45167 2021-06-24 02:26:42 Terrasse 18.80 19.34 99.90
45166 2021-06-24 01:58:25 Terrasse 19.10 19.67 99.90
45165 2021-06-24 01:30:07 Terrasse 19.10 19.67 99.90
45164 2021-06-24 01:01:48 Terrasse 19.30 19.89 99.90
45163 2021-06-24 00:33:30 Terrasse 19.30 19.89 99.90
45162 2021-06-24 00:05:12 Terrasse 19.40 20.00 99.90
45161 2021-06-23 23:36:56 Terrasse 19.50 20.11 99.90
45160 2021-06-23 23:10:43 Terrasse 19.70 20.33 99.90
45159 2021-06-23 22:36:50 Terrasse 20.10 20.77 99.90
45158 2021-06-23 22:00:29 Terrasse 20.30 20.99 99.90
45157 2021-06-23 21:27:04 Terrasse 20.70 21.43 99.90
45156 2021-06-23 19:49:09 Terrasse 21.50 22.31 99.90
45155 2021-06-23 19:17:54 Terrasse 21.70 22.53 99.90
45154 2021-06-23 18:14:07 Terrasse 22.20 23.08 99.90
45153 2021-06-23 17:16:23 Terrasse 23.70 24.73 99.90
45152 2021-06-23 16:48:02 Terrasse 23.70 24.73 99.90
45151 2021-06-23 15:17:49 Terrasse 21.40 22.20 99.90
45150 2021-06-23 13:47:59 Terrasse 22.40 23.30 99.90
45149 2021-06-23 13:19:45 Terrasse 23.20 24.18 99.90
45148 2021-06-23 12:51:38 Terrasse 24.80 25.79 94.00
45147 2021-06-23 12:23:29 Terrasse 26.00 28.14 92.60
45146 2021-06-23 11:54:57 Terrasse 24.00 25.06 99.90
45145 2021-06-23 11:26:39 Terrasse 24.70 25.83 99.90
45144 2021-06-23 10:58:01 Terrasse 22.70 23.63 99.90
45143 2021-06-23 10:29:31 Terrasse 21.40 22.20 99.90
45142 2021-06-23 10:01:04 Terrasse 20.00 20.66 99.90
45141 2021-06-23 09:32:38 Terrasse 18.90 19.45 99.90
45140 2021-06-23 05:59:36 Terrasse 16.60 16.92 99.90
45139 2021-06-23 05:33:44 Terrasse 16.90 17.25 99.90
45138 2021-06-23 04:37:46 Terrasse 16.90 17.25 99.90
45137 2021-06-23 03:39:51 Terrasse 16.90 17.25 99.90
45136 2021-06-23 02:39:23 Terrasse 16.90 17.25 99.90
45135 2021-06-23 01:38:22 Terrasse 17.00 17.36 99.90
45134 2021-06-23 00:43:15 Terrasse 17.30 17.69 99.90
45133 2021-06-22 23:41:10 Terrasse 17.10 17.47 99.90
45132 2021-06-22 23:12:55 Terrasse 17.30 17.69 99.90
45131 2021-06-22 22:44:41 Terrasse 17.50 17.91 99.90
45130 2021-06-22 22:16:27 Terrasse 17.70 18.13 99.90
45129 2021-06-22 21:48:11 Terrasse 17.90 18.35 99.90
45128 2021-06-22 21:19:59 Terrasse 18.30 18.79 99.90
45127 2021-06-22 20:51:45 Terrasse 18.70 19.23 99.90
45126 2021-06-22 20:23:31 Terrasse 19.00 19.56 99.90
45125 2021-06-22 19:55:14 Terrasse 19.00 19.56 99.90
45124 2021-06-22 19:26:59 Terrasse 19.00 19.56 99.90
45123 2021-06-22 18:58:45 Terrasse 19.30 19.89 99.90
45122 2021-06-22 18:30:29 Terrasse 19.30 19.89 99.90
45121 2021-06-22 18:02:14 Terrasse 19.10 19.67 99.90
45120 2021-06-22 17:33:59 Terrasse 19.10 19.67 99.90
45119 2021-06-22 17:05:45 Terrasse 19.00 19.56 99.90
45118 2021-06-22 16:37:28 Terrasse 18.90 19.45 99.90
45117 2021-06-22 16:09:13 Terrasse 18.70 19.23 99.90
45116 2021-06-22 15:40:57 Terrasse 18.90 19.45 99.90
45115 2021-06-22 15:12:41 Terrasse 18.80 19.34 99.90
45114 2021-06-22 14:44:27 Terrasse 18.90 19.45 99.90
45113 2021-06-22 14:16:15 Terrasse 19.40 20.00 99.90
45112 2021-06-22 13:48:12 Terrasse 20.20 20.88 99.90
45111 2021-06-22 13:19:50 Terrasse 19.70 20.33 99.90
45110 2021-06-22 12:51:32 Terrasse 19.00 19.56 99.90
45109 2021-06-22 12:23:18 Terrasse 19.40 20.00 99.90
45108 2021-06-22 11:55:05 Terrasse 19.90 20.55 99.90
45107 2021-06-22 11:26:47 Terrasse 19.60 20.22 99.90
45106 2021-06-22 10:58:33 Terrasse 19.80 20.44 99.90
45105 2021-06-22 10:30:14 Terrasse 19.40 20.00 99.90
45104 2021-06-22 10:01:57 Terrasse 19.40 20.00 99.90
45103 2021-06-22 09:33:39 Terrasse 19.20 19.78 99.90
45102 2021-06-22 09:05:17 Terrasse 18.50 19.01 99.90
45101 2021-06-22 08:36:57 Terrasse 18.00 18.46 99.90
45100 2021-06-22 08:08:39 Terrasse 17.40 17.80 99.90
45099 2021-06-22 07:40:21 Terrasse 16.90 17.25 99.90
45098 2021-06-22 07:12:47 Terrasse 16.70 17.03 99.90
45097 2021-06-22 06:44:24 Terrasse 16.70 17.03 99.90
45096 2021-06-22 06:16:09 Terrasse 16.50 16.81 99.90
45095 2021-06-22 05:48:07 Terrasse 16.60 16.92 99.90
45094 2021-06-22 05:20:04 Terrasse 16.80 17.14 99.90
45093 2021-06-22 04:51:50 Terrasse 17.20 17.58 99.90
45092 2021-06-22 04:23:38 Terrasse 17.20 17.58 99.90
45091 2021-06-22 03:55:27 Terrasse 17.40 17.80 99.90
45090 2021-06-22 03:27:20 Terrasse 17.80 18.24 99.90
45089 2021-06-22 02:59:08 Terrasse 18.00 18.46 99.90
45088 2021-06-22 02:30:50 Terrasse 18.00 18.46 99.90
45087 2021-06-22 02:02:41 Terrasse 18.20 18.68 99.90
45086 2021-06-22 01:34:25 Terrasse 18.60 19.12 99.90
45085 2021-06-22 01:06:13 Terrasse 19.20 19.78 99.90
45084 2021-06-22 00:37:58 Terrasse 19.60 19.97 90.00
45083 2021-06-22 00:09:45 Terrasse 20.00 20.38 89.20
45082 2021-06-21 23:43:34 Terrasse 20.20 20.54 86.80
45081 2021-06-21 23:11:16 Terrasse 20.50 20.69 79.80
45080 2021-06-21 22:39:56 Terrasse 20.90 21.12 79.50
45079 2021-06-21 22:09:50 Terrasse 21.30 21.59 80.60
45078 2021-06-21 21:37:06 Terrasse 21.80 22.07 78.10
45077 2021-06-21 21:08:53 Terrasse 22.40 22.67 75.70
45076 2021-06-21 20:42:16 Terrasse 22.90 23.21 75.30
45075 2021-06-21 20:13:06 Terrasse 23.50 23.86 74.70